createdAt,value
2023-05-11T00:00:45.607Z,5.88
2023-05-11T00:03:12.299Z,6.45
2023-05-11T00:05:38.995Z,5.55
2023-05-11T00:08:05.364Z,6.10
2023-05-11T00:10:31.784Z,5.05
2023-05-11T00:12:58.163Z,4.45
2023-05-11T00:15:24.569Z,5.32
2023-05-11T00:17:50.945Z,5.30
2023-05-11T00:20:18.180Z,5.22
2023-05-11T00:22:45.117Z,7.68
2023-05-11T00:25:11.494Z,5.35
2023-05-11T00:27:37.889Z,6.63
2023-05-11T00:30:04.424Z,6.93
2023-05-11T00:32:30.980Z,6.90
2023-05-11T00:34:57.321Z,6.70
2023-05-11T00:37:25.865Z,6.95
2023-05-11T00:39:52.417Z,8.55
2023-05-11T00:42:18.773Z,7.30
2023-05-11T00:44:45.107Z,7.88
2023-05-11T00:47:11.570Z,9.35
2023-05-11T00:49:39.074Z,8.15
2023-05-11T00:52:05.733Z,8.35
2023-05-11T00:54:32.422Z,7.90
2023-05-11T00:56:59.518Z,6.57
2023-05-11T00:59:25.835Z,8.80
2023-05-11T01:01:52.263Z,9.65
2023-05-11T01:04:19.316Z,5.85
2023-05-11T01:07:03.828Z,8.27
2023-05-11T01:09:45.215Z,9.48
2023-05-11T01:12:18.092Z,9.70
2023-05-11T01:14:56.584Z,5.20
2023-05-11T01:17:32.498Z,8.23
2023-05-11T01:20:02.693Z,8.95
2023-05-11T01:22:47.927Z,9.02
2023-05-11T01:25:33.016Z,7.53
2023-05-11T01:28:02.137Z,10.18
2023-05-11T01:30:28.660Z,9.32
2023-05-11T01:32:56.836Z,8.73
2023-05-11T01:35:24.368Z,8.10
2023-05-11T01:37:52.993Z,7.40
2023-05-11T01:40:23.738Z,7.85
2023-05-11T01:42:51.475Z,8.95
2023-05-11T01:45:18.944Z,5.38
2023-05-11T01:47:48.842Z,5.32
2023-05-11T01:50:17.167Z,7.70
2023-05-11T01:52:46.025Z,5.55
2023-05-11T01:55:13.796Z,6.63
2023-05-11T01:57:40.131Z,7.90
2023-05-11T02:00:07.453Z,9.00
2023-05-11T02:02:34.171Z,7.70
2023-05-11T02:05:01.708Z,8.82
2023-05-11T02:07:30.042Z,7.40
2023-05-11T02:09:57.070Z,7.50
2023-05-11T02:12:23.513Z,6.97
2023-05-11T02:14:51.250Z,5.38
2023-05-11T02:17:18.516Z,9.57
2023-05-11T02:19:45.401Z,8.52
2023-05-11T02:22:12.547Z,7.13
2023-05-11T02:24:39.711Z,8.10
2023-05-11T02:27:06.278Z,9.45
2023-05-11T02:29:32.635Z,7.30
2023-05-11T02:32:18.186Z,6.28
2023-05-11T02:34:48.554Z,6.72
2023-05-11T02:37:16.352Z,6.63
2023-05-11T02:39:45.325Z,7.90
2023-05-11T02:42:16.645Z,8.60
2023-05-11T02:44:53.378Z,7.05
2023-05-11T02:47:21.276Z,8.48
2023-05-11T02:49:53.617Z,10.70
2023-05-11T02:52:21.419Z,7.07
2023-05-11T02:54:50.427Z,9.85
2023-05-11T02:57:18.179Z,7.32
2023-05-11T02:59:45.327Z,10.60
2023-05-11T03:02:12.036Z,9.45
2023-05-11T03:04:38.928Z,11.77
2023-05-11T03:07:05.955Z,9.07
2023-05-11T03:09:32.603Z,8.30
2023-05-11T03:11:59.382Z,10.88
2023-05-11T03:14:26.162Z,9.13
2023-05-11T03:16:52.750Z,10.25
2023-05-11T03:19:19.145Z,7.45
2023-05-11T03:21:46.462Z,9.35
2023-05-11T03:24:13.062Z,10.20
2023-05-11T03:26:40.605Z,7.72
2023-05-11T03:29:07.592Z,9.57
2023-05-11T03:31:34.020Z,7.15
2023-05-11T03:34:00.516Z,9.07
2023-05-11T03:36:27.138Z,11.55
2023-05-11T03:38:54.134Z,9.57
2023-05-11T03:41:21.539Z,8.18
2023-05-11T03:43:50.979Z,7.43
2023-05-11T03:46:19.257Z,7.50
2023-05-11T03:48:46.102Z,7.13
2023-05-11T03:51:13.044Z,10.15
2023-05-11T03:53:39.429Z,8.13
2023-05-11T03:56:07.344Z,7.18
2023-05-11T03:58:33.710Z,7.97
2023-05-11T04:01:00.156Z,8.38
2023-05-11T04:03:27.109Z,8.70
2023-05-11T04:05:53.649Z,8.15
2023-05-11T04:08:20.012Z,8.93
2023-05-11T04:10:46.348Z,7.95
2023-05-11T04:13:12.754Z,6.50
2023-05-11T04:15:39.095Z,8.88
2023-05-11T04:18:05.558Z,9.18
2023-05-11T04:20:32.259Z,7.68
2023-05-11T04:22:58.578Z,7.68
2023-05-11T04:25:25.072Z,8.07
2023-05-11T04:27:51.571Z,9.25
2023-05-11T04:30:19.263Z,7.97
2023-05-11T04:32:45.902Z,7.13
2023-05-11T04:35:12.249Z,8.82
2023-05-11T04:37:38.597Z,8.63
2023-05-11T04:40:05.268Z,8.57
2023-05-11T04:42:31.573Z,9.30
2023-05-11T04:44:58.015Z,8.32
2023-05-11T04:47:24.362Z,8.75
2023-05-11T04:49:51.881Z,8.23
2023-05-11T04:52:18.219Z,9.35
2023-05-11T04:54:44.703Z,8.45
2023-05-11T04:57:11.041Z,7.78
2023-05-11T04:59:37.400Z,9.73
2023-05-11T05:02:04.204Z,8.98
2023-05-11T05:04:30.928Z,8.25
2023-05-11T05:06:57.377Z,7.43
2023-05-11T05:09:23.721Z,8.77
2023-05-11T05:11:50.042Z,8.25
2023-05-11T05:14:16.586Z,7.50
2023-05-11T05:16:42.959Z,9.98
2023-05-11T05:19:10.182Z,10.25
2023-05-11T05:21:36.916Z,9.82
2023-05-11T05:24:06.902Z,10.93
2023-05-11T05:26:33.249Z,9.90
2023-05-11T05:28:59.717Z,7.00
2023-05-11T05:31:26.271Z,9.75
2023-05-11T05:33:52.686Z,11.05
2023-05-11T05:36:19.095Z,10.25
2023-05-11T05:38:45.516Z,10.75
2023-05-11T05:41:11.824Z,9.68
2023-05-11T05:43:38.184Z,10.35
2023-05-11T05:46:04.613Z,10.20
2023-05-11T05:48:31.134Z,11.18
2023-05-11T05:50:57.565Z,9.85
2023-05-11T05:53:23.861Z,6.93
2023-05-11T05:55:50.327Z,10.55
2023-05-11T05:58:16.859Z,8.57
2023-05-11T06:00:43.297Z,5.70
2023-05-11T06:03:09.792Z,9.65
2023-05-11T06:05:36.225Z,8.40
2023-05-11T06:10:35.451Z,10.82
2023-05-11T06:13:01.924Z,9.18
2023-05-11T06:15:28.286Z,9.52
2023-05-11T06:17:54.683Z,10.05
2023-05-11T06:20:21.614Z,8.90
2023-05-11T06:22:47.977Z,9.38
2023-05-11T06:25:14.313Z,9.98
2023-05-11T06:27:40.741Z,10.10
2023-05-11T06:30:07.505Z,9.95
2023-05-11T06:32:34.335Z,10.80
2023-05-11T06:35:01.345Z,12.55
2023-05-11T06:37:31.260Z,11.20
2023-05-11T06:39:58.336Z,10.40
2023-05-11T06:42:24.711Z,6.10
2023-05-11T06:44:51.192Z,10.75
2023-05-11T06:47:17.645Z,12.25
2023-05-11T06:49:44.254Z,8.85
2023-05-11T06:52:10.690Z,11.77
2023-05-11T06:54:37.030Z,10.23
2023-05-11T06:57:03.724Z,12.15
2023-05-11T06:59:30.518Z,11.25
2023-05-11T07:01:56.879Z,8.77
2023-05-11T07:04:23.323Z,11.05
2023-05-11T07:06:49.773Z,10.38
2023-05-11T07:09:16.160Z,11.48
2023-05-11T07:11:42.666Z,9.07
2023-05-11T07:14:09.053Z,11.30
2023-05-11T07:16:38.664Z,11.40
2023-05-11T07:19:05.535Z,12.30
2023-05-11T07:21:34.707Z,13.30
2023-05-11T07:24:01.176Z,11.35
2023-05-11T07:26:27.584Z,10.20
2023-05-11T07:28:54.121Z,12.05
2023-05-11T07:31:20.506Z,12.55
2023-05-11T07:33:47.298Z,12.90
2023-05-11T07:36:13.728Z,11.52
2023-05-11T07:38:40.160Z,11.88
2023-05-11T07:41:08.835Z,12.40
2023-05-11T07:43:36.495Z,11.82
2023-05-11T07:46:02.849Z,12.60
2023-05-11T07:48:29.411Z,10.88
2023-05-11T07:50:55.758Z,10.80
2023-05-11T07:53:22.091Z,10.40
2023-05-11T07:55:48.492Z,9.90
2023-05-11T07:58:15.187Z,8.75
2023-05-11T08:00:41.684Z,10.25
2023-05-11T08:03:08.252Z,7.68
2023-05-11T08:05:37.477Z,10.50
2023-05-11T08:08:04.905Z,8.00
2023-05-11T08:10:31.758Z,10.98
2023-05-11T08:12:58.464Z,9.60
2023-05-11T08:15:24.863Z,8.50
2023-05-11T08:17:51.313Z,8.85
2023-05-11T08:20:17.773Z,8.73
2023-05-11T08:22:44.614Z,7.13
2023-05-11T08:25:11.252Z,7.95
2023-05-11T08:27:37.757Z,7.03
2023-05-11T08:30:04.380Z,6.70
2023-05-11T08:32:30.909Z,5.10
2023-05-11T08:34:57.760Z,4.60
2023-05-11T08:37:24.235Z,5.47
2023-05-11T08:39:51.297Z,5.55
2023-05-11T08:42:18.591Z,7.35
2023-05-11T08:44:45.074Z,5.78
2023-05-11T08:47:22.552Z,8.23
2023-05-11T08:49:50.134Z,8.00
2023-05-11T08:52:17.881Z,8.25
2023-05-11T08:54:44.887Z,7.60
2023-05-11T08:57:12.454Z,6.90
2023-05-11T08:59:39.204Z,7.25
2023-05-11T09:02:06.295Z,6.53
2023-05-11T09:04:33.481Z,7.20
2023-05-11T09:06:59.973Z,6.90
2023-05-11T09:09:26.766Z,7.35
2023-05-11T09:11:54.189Z,8.02
2023-05-11T09:14:26.911Z,8.27
2023-05-11T09:16:53.990Z,9.25
2023-05-11T09:19:20.980Z,7.93
2023-05-11T09:21:47.578Z,8.30
2023-05-11T09:24:14.061Z,9.05
2023-05-11T09:26:40.792Z,9.98
2023-05-11T09:29:07.462Z,8.55
2023-05-11T09:31:37.345Z,9.18
2023-05-11T09:34:13.596Z,8.95
2023-05-11T09:36:44.418Z,8.07
2023-05-11T09:39:15.550Z,7.13
2023-05-11T09:41:42.455Z,7.20
2023-05-11T09:44:10.464Z,6.82
2023-05-11T09:46:40.411Z,7.45
2023-05-11T09:49:07.133Z,6.55
2023-05-11T09:51:35.120Z,8.13
2023-05-11T09:54:01.892Z,7.53
2023-05-11T09:56:51.716Z,5.57
2023-05-11T09:59:36.490Z,7.90
2023-05-11T10:02:22.801Z,10.23
2023-05-11T10:04:52.654Z,8.65
2023-05-11T10:07:26.277Z,6.65
2023-05-11T10:09:56.551Z,6.75
2023-05-11T10:12:25.560Z,8.30
2023-05-11T10:14:54.809Z,5.15
2023-05-11T10:17:21.593Z,8.95
2023-05-11T10:19:49.095Z,10.15
2023-05-11T10:22:16.072Z,6.80
2023-05-11T10:24:42.854Z,7.55
2023-05-11T10:27:10.187Z,7.63
2023-05-11T10:29:37.332Z,7.50
2023-05-11T10:32:04.589Z,7.75
2023-05-11T10:34:31.231Z,5.07
2023-05-11T10:37:00.065Z,6.55
2023-05-11T10:39:28.534Z,7.20
2023-05-11T10:42:13.766Z,7.25
2023-05-11T10:44:49.347Z,4.93
2023-05-11T10:47:18.464Z,6.60
2023-05-11T10:49:59.583Z,7.32
2023-05-11T10:52:35.147Z,6.75
2023-05-11T10:55:01.518Z,7.20
2023-05-11T10:57:43.331Z,6.68
2023-05-11T11:00:31.889Z,5.05
2023-05-11T11:02:59.033Z,6.10
2023-05-11T11:05:34.982Z,5.47
2023-05-11T11:08:05.336Z,5.97
2023-05-11T11:10:35.709Z,5.20
2023-05-11T11:13:06.283Z,4.68
2023-05-11T11:15:51.384Z,3.80
2023-05-11T11:18:27.804Z,2.88
2023-05-11T11:20:55.743Z,4.13
2023-05-11T11:23:51.191Z,3.03
2023-05-11T11:26:19.272Z,3.70
2023-05-11T11:28:54.803Z,3.45
2023-05-11T11:33:48.164Z,5.07
2023-05-11T11:36:16.314Z,4.65
2023-05-11T11:39:01.284Z,5.35
2023-05-11T11:41:28.241Z,6.25
2023-05-11T11:43:55.441Z,6.60
2023-05-11T11:46:25.708Z,5.80
2023-05-11T11:48:54.370Z,6.10
2023-05-11T11:51:32.365Z,5.45
2023-05-11T11:54:00.720Z,6.43
2023-05-11T11:56:30.821Z,5.60
2023-05-11T11:58:58.461Z,6.18
2023-05-11T12:01:26.882Z,5.65
2023-05-11T12:04:05.716Z,6.13
2023-05-11T12:06:37.074Z,6.38
2023-05-11T12:09:04.950Z,5.68
2023-05-11T12:11:31.877Z,5.85
2023-05-11T12:13:59.322Z,5.72
2023-05-11T12:16:25.814Z,5.88
2023-05-11T12:18:53.555Z,5.57
2023-05-11T12:21:21.126Z,5.90
2023-05-11T12:23:58.228Z,6.85
2023-05-11T12:26:25.611Z,5.88
2023-05-11T12:29:05.907Z,6.70
2023-05-11T12:31:36.080Z,6.93
2023-05-11T12:34:02.492Z,7.05
2023-05-11T12:36:29.832Z,6.00
2023-05-11T12:38:56.429Z,7.43
2023-05-11T12:41:23.179Z,7.70
2023-05-11T12:43:50.311Z,8.05
2023-05-11T12:46:17.879Z,6.57
2023-05-11T12:48:47.672Z,6.78
2023-05-11T12:51:14.251Z,6.53
2023-05-11T12:53:41.247Z,7.15
2023-05-11T12:56:08.621Z,7.57
2023-05-11T12:58:38.445Z,7.47
2023-05-11T13:01:05.144Z,7.97
2023-05-11T13:03:34.086Z,8.70
2023-05-11T13:06:10.822Z,8.50
2023-05-11T13:08:38.151Z,9.85
2023-05-11T13:11:22.340Z,12.10
2023-05-11T13:13:49.268Z,11.80
2023-05-11T13:16:24.800Z,12.27
2023-05-11T13:19:03.724Z,12.95
2023-05-11T13:21:30.688Z,11.38
2023-05-11T13:23:57.097Z,9.10
2023-05-11T13:26:27.377Z,12.38
2023-05-11T13:29:08.794Z,9.20
2023-05-11T13:31:46.675Z,9.10
2023-05-11T13:34:13.401Z,12.10
2023-05-11T13:36:40.056Z,11.75
2023-05-11T13:39:06.673Z,9.80
2023-05-11T13:41:33.097Z,10.55
2023-05-11T13:43:59.615Z,10.63
2023-05-11T13:46:25.985Z,11.45
2023-05-11T13:48:54.675Z,6.93
2023-05-11T13:51:21.554Z,9.57
2023-05-11T13:53:47.990Z,9.77
2023-05-11T13:56:14.473Z,9.57
2023-05-11T13:58:41.018Z,8.82
2023-05-11T14:01:08.601Z,10.45
2023-05-11T14:03:35.269Z,10.73
2023-05-11T14:06:02.669Z,11.15
2023-05-11T14:08:30.219Z,9.00
2023-05-11T14:10:56.532Z,6.05
2023-05-11T14:13:23.839Z,6.05
2023-05-11T14:15:51.237Z,4.90
2023-05-11T14:18:17.890Z,5.00
2023-05-11T14:20:44.422Z,5.57
2023-05-11T14:23:10.852Z,3.58
2023-05-11T14:25:37.278Z,3.30
2023-05-11T14:28:03.672Z,2.47
2023-05-11T14:30:30.050Z,3.13
2023-05-11T14:32:56.999Z,2.90
2023-05-11T14:35:23.461Z,3.20
2023-05-11T14:37:49.964Z,3.30
2023-05-11T14:40:16.691Z,3.45
2023-05-11T14:42:43.064Z,3.13
2023-05-11T14:45:09.762Z,3.97
2023-05-11T14:47:36.146Z,3.75
2023-05-11T14:50:02.832Z,3.72
2023-05-11T14:52:29.188Z,4.35
2023-05-11T14:54:55.551Z,4.38
2023-05-11T14:57:22.212Z,3.58
2023-05-11T14:59:58.983Z,3.25
2023-05-11T15:02:26.702Z,3.20
2023-05-11T15:04:53.185Z,3.33
2023-05-11T15:07:19.556Z,4.05
2023-05-11T15:09:45.968Z,3.92
2023-05-11T15:12:12.393Z,4.57
2023-05-11T15:14:38.728Z,3.67
2023-05-11T15:17:05.260Z,2.92
2023-05-11T15:19:31.668Z,3.92
2023-05-11T15:21:58.032Z,4.50
2023-05-11T15:24:24.520Z,3.42
2023-05-11T15:26:50.847Z,3.78
2023-05-11T15:29:17.212Z,4.03
2023-05-11T15:31:43.591Z,3.22
2023-05-11T15:34:09.979Z,4.53
2023-05-11T15:36:36.338Z,3.80
2023-05-11T15:39:02.868Z,4.03
2023-05-11T15:41:29.257Z,4.90
2023-05-11T15:43:55.632Z,4.60
2023-05-11T15:46:23.477Z,4.68
2023-05-11T15:48:49.858Z,5.68
2023-05-11T15:51:16.387Z,5.95
2023-05-11T15:53:42.760Z,5.57
2023-05-11T15:56:09.383Z,5.45
2023-05-11T15:58:35.700Z,5.25
2023-05-11T16:01:02.114Z,4.82
2023-05-11T16:03:28.720Z,5.38
2023-05-11T16:05:55.582Z,3.05
2023-05-11T16:08:22.054Z,4.70
2023-05-11T16:10:48.386Z,4.38
2023-05-11T16:13:14.803Z,3.80
2023-05-11T16:15:41.336Z,4.65
2023-05-11T16:18:07.752Z,4.70
2023-05-11T16:20:34.256Z,4.78
2023-05-11T16:23:00.741Z,4.88
2023-05-11T16:25:27.114Z,4.13
2023-05-11T16:27:53.481Z,3.97
2023-05-11T16:30:24.852Z,4.30
2023-05-11T16:32:52.738Z,4.55
2023-05-11T16:35:19.400Z,4.40
2023-05-11T16:37:47.669Z,4.60
2023-05-11T16:40:14.128Z,4.00
2023-05-11T16:42:40.555Z,3.55
2023-05-11T16:45:07.202Z,3.30
2023-05-11T16:47:33.647Z,3.95
2023-05-11T16:50:00.163Z,3.83
2023-05-11T16:52:26.547Z,3.70
2023-05-11T16:54:52.946Z,2.58
2023-05-11T16:57:19.277Z,1.60
2023-05-11T16:59:45.627Z,2.20
2023-05-11T17:02:12.282Z,1.92
2023-05-11T17:04:38.681Z,2.33
2023-05-11T17:07:05.060Z,3.13
2023-05-11T17:09:31.606Z,2.65
2023-05-11T17:11:58.010Z,3.92
2023-05-11T17:14:24.403Z,3.40
2023-05-11T17:16:51.293Z,4.05
2023-05-11T17:19:17.903Z,4.70
2023-05-11T17:21:44.643Z,4.53
2023-05-11T17:24:11.038Z,3.75
2023-05-11T17:26:47.030Z,4.78
2023-05-11T17:29:15.068Z,3.58
2023-05-11T17:31:42.011Z,4.43
2023-05-11T17:34:09.229Z,4.72
2023-05-11T17:36:36.171Z,5.43
2023-05-11T17:39:02.787Z,5.68
2023-05-11T17:41:29.318Z,5.10
2023-05-11T17:43:55.830Z,5.63
2023-05-11T17:46:22.285Z,6.32
2023-05-11T17:48:49.138Z,6.95
2023-05-11T17:51:15.737Z,5.40
2023-05-11T17:53:42.095Z,5.40
2023-05-11T17:56:11.643Z,6.10
2023-05-11T17:58:38.125Z,5.90
2023-05-11T18:01:08.661Z,5.60
2023-05-11T18:03:35.285Z,4.65
2023-05-11T18:06:01.815Z,5.18
2023-05-11T18:08:28.195Z,5.25
2023-05-11T18:10:54.602Z,5.00
2023-05-11T18:13:21.549Z,6.25
2023-05-11T18:15:48.453Z,5.55
2023-05-11T18:18:14.973Z,5.35
2023-05-11T18:20:45.553Z,5.25
2023-05-11T18:23:15.228Z,5.43
2023-05-11T18:25:42.300Z,4.93
2023-05-11T18:28:08.630Z,5.05
2023-05-11T18:30:35.705Z,5.40
2023-05-11T18:33:02.139Z,5.18
2023-05-11T18:35:28.562Z,4.88
2023-05-11T18:37:55.329Z,5.65
2023-05-11T18:40:22.210Z,4.68
2023-05-11T18:42:48.780Z,4.85
2023-05-11T18:45:15.124Z,4.40
2023-05-11T18:47:46.112Z,4.82
2023-05-11T18:50:12.778Z,5.38
2023-05-11T18:52:39.116Z,5.03
2023-05-11T18:55:05.638Z,5.20
2023-05-11T18:57:34.050Z,5.55
2023-05-11T19:00:00.836Z,5.10
2023-05-11T19:02:27.279Z,4.03
2023-05-11T19:04:53.641Z,4.03
2023-05-11T19:07:20.678Z,5.13
2023-05-11T19:09:47.213Z,4.82
2023-05-11T19:12:13.672Z,5.03
2023-05-11T19:14:40.098Z,4.47
2023-05-11T19:17:06.622Z,4.65
2023-05-11T19:19:32.956Z,4.50
2023-05-11T19:21:59.834Z,4.50
2023-05-11T19:24:26.545Z,4.70
2023-05-11T19:27:05.777Z,3.78
2023-05-11T19:29:33.479Z,4.20
2023-05-11T19:31:59.852Z,4.15
2023-05-11T19:34:26.255Z,4.97
2023-05-11T19:36:52.609Z,5.28
2023-05-11T19:39:19.032Z,3.85
2023-05-11T19:41:45.458Z,5.68
2023-05-11T19:44:11.773Z,5.35
2023-05-11T19:46:45.531Z,4.53
2023-05-11T19:49:16.351Z,5.60
2023-05-11T19:51:43.324Z,6.18
2023-05-11T19:54:10.789Z,5.05
2023-05-11T19:56:37.163Z,6.53
2023-05-11T19:59:04.651Z,6.75
2023-05-11T20:01:31.226Z,6.05
2023-05-11T20:03:57.895Z,5.35
2023-05-11T20:06:24.997Z,4.57
2023-05-11T20:08:52.698Z,6.28
2023-05-11T20:11:19.202Z,6.35
2023-05-11T20:13:46.722Z,5.90
2023-05-11T20:16:13.394Z,4.00
2023-05-11T20:18:39.908Z,5.22
2023-05-11T20:21:06.341Z,6.50
2023-05-11T20:23:32.666Z,5.55
2023-05-11T20:25:59.022Z,5.55
2023-05-11T20:28:28.590Z,5.18
2023-05-11T20:30:56.165Z,5.43
2023-05-11T20:35:53.323Z,3.78
2023-05-11T20:38:20.176Z,5.40
2023-05-11T20:40:46.637Z,4.07
2023-05-11T20:43:14.521Z,6.00
2023-05-11T20:45:41.734Z,4.13
2023-05-11T20:48:08.299Z,4.97
2023-05-11T20:50:34.784Z,6.15
2023-05-11T20:53:01.253Z,6.68
2023-05-11T20:55:27.687Z,4.45
2023-05-11T20:57:54.044Z,5.80
2023-05-11T21:00:20.690Z,5.35
2023-05-11T21:02:47.441Z,4.95
2023-05-11T21:05:14.010Z,5.38
2023-05-11T21:07:40.412Z,5.50
2023-05-11T21:10:07.015Z,5.20
2023-05-11T21:12:33.405Z,5.30
2023-05-11T21:14:59.903Z,4.95
2023-05-11T21:17:26.366Z,3.67
2023-05-11T21:19:52.755Z,4.13
2023-05-11T21:22:19.139Z,3.42
2023-05-11T21:24:45.515Z,3.70
2023-05-11T21:27:11.832Z,3.55
2023-05-11T21:29:38.348Z,4.20
2023-05-11T21:32:05.017Z,4.70
2023-05-11T21:34:31.347Z,4.72
2023-05-11T21:36:57.783Z,3.70
2023-05-11T21:39:25.066Z,5.10
2023-05-11T21:41:51.453Z,4.57
2023-05-11T21:44:17.804Z,4.90
2023-05-11T21:46:44.189Z,3.67
2023-05-11T21:49:10.715Z,4.20
2023-05-11T21:51:37.038Z,4.57
2023-05-11T21:54:03.609Z,4.45
2023-05-11T21:56:30.562Z,3.42
2023-05-11T21:58:57.084Z,2.97
2023-05-11T22:01:23.600Z,4.65
2023-05-11T22:03:50.302Z,3.33
2023-05-11T22:06:16.831Z,2.70
2023-05-11T22:08:43.179Z,3.63
2023-05-11T22:11:09.917Z,3.70
2023-05-11T22:13:36.318Z,3.72
2023-05-11T22:16:03.364Z,4.00
2023-05-11T22:18:29.967Z,1.80
2023-05-11T22:20:56.349Z,3.15
2023-05-11T22:23:22.676Z,2.63
2023-05-11T22:25:49.035Z,2.50
2023-05-11T22:28:15.429Z,2.55
2023-05-11T22:30:41.868Z,2.33
2023-05-11T22:33:08.188Z,3.47
2023-05-11T22:35:34.686Z,3.25
2023-05-11T22:38:01.798Z,3.78
2023-05-11T22:40:28.517Z,2.65
2023-05-11T22:42:54.929Z,1.85
2023-05-11T22:45:21.354Z,3.70
2023-05-11T22:47:48.366Z,3.25
2023-05-11T22:50:14.904Z,2.78
2023-05-11T22:52:41.307Z,2.92
2023-05-11T22:55:07.994Z,3.30
2023-05-11T22:57:34.304Z,2.22
2023-05-11T23:00:00.651Z,3.85
2023-05-11T23:02:27.189Z,3.53
2023-05-11T23:04:53.752Z,4.35
2023-05-11T23:07:20.080Z,3.75
2023-05-11T23:09:46.637Z,3.13
2023-05-11T23:12:13.419Z,4.05
2023-05-11T23:14:39.741Z,3.13
2023-05-11T23:17:06.116Z,4.32
2023-05-11T23:19:33.012Z,3.85
2023-05-11T23:21:59.841Z,3.60
2023-05-11T23:24:26.710Z,3.83
2023-05-11T23:26:53.115Z,3.35
2023-05-11T23:29:19.513Z,3.17
2023-05-11T23:31:46.600Z,3.50
2023-05-11T23:34:13.069Z,3.17
2023-05-11T23:36:39.496Z,3.42
2023-05-11T23:39:06.606Z,3.25
2023-05-11T23:41:33.059Z,4.15
2023-05-11T23:44:00.599Z,3.85
2023-05-11T23:46:26.991Z,3.00
2023-05-11T23:48:53.303Z,2.65
2023-05-11T23:51:19.621Z,2.60
2023-05-11T23:53:46.638Z,3.10
2023-05-11T23:56:13.239Z,2.45
2023-05-11T23:58:41.390Z,5.18
